createdAt,value
2023-01-15T00:01:22.736Z,100680.84
2023-01-15T00:04:48.139Z,100679.84
2023-01-15T00:08:13.154Z,100684.53
2023-01-15T00:11:39.170Z,100682.13
2023-01-15T00:15:10.023Z,100668.91
2023-01-15T00:18:44.334Z,100676.25
2023-01-15T00:22:08.738Z,100675.56
2023-01-15T00:25:50.845Z,100677.84
2023-01-15T00:29:15.949Z,100672.72
2023-01-15T00:32:43.103Z,100669.41
2023-01-15T00:36:08.732Z,100677.72
2023-01-15T00:39:35.650Z,100658.16
2023-01-15T00:43:00.725Z,100658.94
2023-01-15T00:46:26.238Z,100665.81
2023-01-15T00:49:52.854Z,100660.72
2023-01-15T00:53:18.572Z,100649.38
2023-01-15T00:56:43.882Z,100649.44
2023-01-15T01:00:10.629Z,100646.25
2023-01-15T01:03:36.047Z,100649.78
2023-01-15T01:07:03.617Z,100641.50
2023-01-15T01:10:28.212Z,100635.50
2023-01-15T01:13:53.550Z,100636.87
2023-01-15T01:17:18.675Z,100635.84
2023-01-15T01:20:45.026Z,100631.00
2023-01-15T01:24:12.948Z,100624.91
2023-01-15T01:27:38.693Z,100626.75
2023-01-15T01:31:06.563Z,100622.81
2023-01-15T01:34:38.617Z,100623.31
2023-01-15T01:38:03.491Z,100626.75
2023-01-15T01:41:30.926Z,100627.25
2023-01-15T01:45:04.908Z,100618.19
2023-01-15T01:48:31.801Z,100610.56
2023-01-15T01:51:59.027Z,100612.44
2023-01-15T01:55:25.635Z,100600.59
2023-01-15T01:58:55.061Z,100598.47
2023-01-15T02:02:22.726Z,100589.56
2023-01-15T02:05:49.882Z,100598.31
2023-01-15T02:09:14.592Z,100598.81
2023-01-15T02:12:40.723Z,100588.19
2023-01-15T02:16:10.541Z,100582.78
2023-01-15T02:19:42.409Z,100571.66
2023-01-15T02:23:26.543Z,100572.09
2023-01-15T02:27:07.441Z,100571.44
2023-01-15T02:30:33.671Z,100570.38
2023-01-15T02:34:01.932Z,100558.87
2023-01-15T02:37:29.119Z,100554.25
2023-01-15T02:41:01.897Z,100551.00
2023-01-15T02:44:28.850Z,100541.75
2023-01-15T02:47:54.502Z,100534.88
2023-01-15T02:51:22.657Z,100535.75
2023-01-15T02:54:52.708Z,100526.22
2023-01-15T02:58:20.140Z,100518.09
2023-01-15T03:01:48.677Z,100523.25
2023-01-15T03:05:17.955Z,100511.72
2023-01-15T03:08:43.456Z,100503.12
2023-01-15T03:12:10.301Z,100508.84
2023-01-15T03:16:01.316Z,100510.12
2023-01-15T03:19:29.815Z,100511.94
2023-01-15T03:23:00.135Z,100505.50
2023-01-15T03:26:25.359Z,100497.31
2023-01-15T03:29:51.789Z,100500.88
2023-01-15T03:33:18.248Z,100491.56
2023-01-15T03:36:44.713Z,100489.25
2023-01-15T03:40:11.767Z,100501.63
2023-01-15T03:43:44.818Z,100503.00
2023-01-15T03:47:18.662Z,100509.25
2023-01-15T03:50:46.225Z,100499.22
2023-01-15T03:54:22.476Z,100502.47
2023-01-15T03:57:51.282Z,100488.09
2023-01-15T04:01:18.831Z,100487.16
2023-01-15T04:04:47.342Z,100483.06
2023-01-15T04:08:12.427Z,100485.69
2023-01-15T04:11:41.048Z,100473.75
2023-01-15T04:15:10.222Z,100481.63
2023-01-15T04:18:36.049Z,100477.50
2023-01-15T04:22:00.850Z,100465.34
2023-01-15T04:25:26.675Z,100469.69
2023-01-15T04:28:53.118Z,100481.72
2023-01-15T04:32:18.534Z,100477.84
2023-01-15T04:35:43.537Z,100487.87
2023-01-15T04:39:09.264Z,100478.31
2023-01-15T04:42:51.478Z,100475.13
2023-01-15T04:46:18.968Z,100469.91
2023-01-15T04:49:43.838Z,100473.41
2023-01-15T04:53:09.561Z,100463.22
2023-01-15T04:56:34.889Z,100456.94
2023-01-15T05:00:00.415Z,100468.19
2023-01-15T05:03:32.060Z,100462.78
2023-01-15T05:06:57.683Z,100456.59
2023-01-15T05:10:23.398Z,100471.00
2023-01-15T05:13:49.021Z,100474.03
2023-01-15T05:17:13.922Z,100472.88
2023-01-15T05:20:43.240Z,100472.41
2023-01-15T05:24:09.574Z,100459.25
2023-01-15T05:27:35.910Z,100471.00
2023-01-15T05:31:01.654Z,100473.22
2023-01-15T05:34:27.147Z,100463.63
2023-01-15T05:37:53.694Z,100450.97
2023-01-15T05:41:37.265Z,100453.66
2023-01-15T05:45:02.958Z,100437.22
2023-01-15T05:48:30.447Z,100424.97
2023-01-15T05:51:56.561Z,100422.22
2023-01-15T05:55:24.121Z,100406.06
2023-01-15T05:58:49.952Z,100403.50
2023-01-15T06:02:15.572Z,100399.19
2023-01-15T06:05:41.499Z,100401.75
2023-01-15T06:09:07.048Z,100398.44
2023-01-15T06:12:35.400Z,100394.94
2023-01-15T06:16:00.707Z,100391.91
2023-01-15T06:19:28.899Z,100390.34
2023-01-15T06:22:55.134Z,100387.28
2023-01-15T06:26:20.750Z,100388.81
2023-01-15T06:29:48.139Z,100381.81
2023-01-15T06:33:16.090Z,100380.13
2023-01-15T06:36:40.991Z,100384.59
2023-01-15T06:40:12.727Z,100386.41
2023-01-15T06:43:54.920Z,100385.47
2023-01-15T06:47:25.106Z,100385.47
2023-01-15T06:50:52.759Z,100390.69
2023-01-15T06:54:17.928Z,100386.09
2023-01-15T06:57:43.083Z,100381.50
2023-01-15T07:01:12.797Z,100373.13
2023-01-15T07:04:39.751Z,100375.03
2023-01-15T07:08:06.704Z,100367.66
2023-01-15T07:11:32.017Z,100355.19
2023-01-15T07:14:57.633Z,100354.97
2023-01-15T07:18:22.611Z,100354.34
2023-01-15T07:21:50.681Z,100348.13
2023-01-15T07:25:15.732Z,100357.72
2023-01-15T07:28:41.653Z,100363.03
2023-01-15T07:32:07.921Z,100362.19
2023-01-15T07:35:38.021Z,100365.97
2023-01-15T07:39:06.827Z,100368.78
2023-01-15T07:42:50.356Z,100359.69
2023-01-15T07:46:32.156Z,100361.50
2023-01-15T07:50:04.048Z,100363.00
2023-01-15T07:53:29.026Z,100357.91
2023-01-15T07:56:56.691Z,100356.28
2023-01-15T08:00:23.547Z,100351.03
2023-01-15T08:03:49.318Z,100353.09
2023-01-15T08:07:14.620Z,100347.38
2023-01-15T08:10:59.736Z,100349.37
2023-01-15T08:14:42.792Z,100343.56
2023-01-15T08:18:08.716Z,100345.31
2023-01-15T08:21:34.336Z,100330.12
2023-01-15T08:25:00.422Z,100337.25
2023-01-15T08:28:24.963Z,100336.81
2023-01-15T08:31:52.172Z,100326.59
2023-01-15T08:35:18.199Z,100326.34
2023-01-15T08:38:43.670Z,100329.88
2023-01-15T08:42:09.098Z,100339.44
2023-01-15T08:45:37.610Z,100326.84
2023-01-15T08:49:05.816Z,100320.34
2023-01-15T08:52:31.891Z,100324.84
2023-01-15T08:55:57.611Z,100331.06
2023-01-15T08:59:25.995Z,100335.66
2023-01-15T09:02:50.536Z,100331.06
2023-01-15T09:06:17.995Z,100338.87
2023-01-15T09:09:43.268Z,100333.81
2023-01-15T09:13:08.371Z,100329.56
2023-01-15T09:16:33.607Z,100315.75
2023-01-15T09:19:59.079Z,100304.38
2023-01-15T09:23:26.063Z,100314.31
2023-01-15T09:26:54.144Z,100322.50
2023-01-15T09:30:20.806Z,100299.75
2023-01-15T09:33:46.094Z,100294.34
2023-01-15T09:37:11.710Z,100287.87
2023-01-15T09:40:51.107Z,100272.62
2023-01-15T09:44:23.225Z,100272.84
2023-01-15T09:47:57.383Z,100267.34
2023-01-15T09:51:26.680Z,100258.66
2023-01-15T09:54:56.906Z,100254.91
2023-01-15T09:58:26.404Z,100253.81
2023-01-15T10:01:52.328Z,100256.16
2023-01-15T10:05:20.466Z,100233.41
2023-01-15T10:08:47.459Z,100220.97
2023-01-15T10:12:35.837Z,100216.37
2023-01-15T10:16:03.159Z,100206.72
2023-01-15T10:19:40.370Z,100200.44
2023-01-15T10:23:23.133Z,100200.28
2023-01-15T10:26:51.272Z,100187.72
2023-01-15T10:30:18.950Z,100189.66
2023-01-15T10:33:52.446Z,100167.56
2023-01-15T10:37:19.609Z,100151.34
2023-01-15T10:41:30.793Z,100154.47
2023-01-15T10:44:58.258Z,100154.81
2023-01-15T10:48:29.611Z,100141.22
2023-01-15T10:51:57.894Z,100148.56
2023-01-15T10:55:28.664Z,100141.06
2023-01-15T10:58:57.339Z,100120.78
2023-01-15T11:02:28.678Z,100115.47
2023-01-15T11:05:52.868Z,100102.03
2023-01-15T11:09:24.433Z,100102.69
2023-01-15T11:13:11.260Z,100102.00
2023-01-15T11:17:02.195Z,100083.16
2023-01-15T11:20:30.303Z,100082.09
2023-01-15T11:23:55.787Z,100072.59
2023-01-15T11:27:25.059Z,100064.25
2023-01-15T11:30:56.962Z,100057.91
2023-01-15T11:34:24.810Z,100048.59
2023-01-15T11:37:49.911Z,100035.38
2023-01-15T11:41:23.537Z,100033.13
2023-01-15T11:45:16.284Z,100028.13
2023-01-15T11:49:04.434Z,100018.97
2023-01-15T11:52:30.242Z,100010.41
2023-01-15T11:55:55.986Z,100007.97
2023-01-15T11:59:22.828Z,100013.87
2023-01-15T12:02:49.776Z,99996.47
2023-01-15T12:06:15.713Z,99987.78
2023-01-15T12:09:54.543Z,99957.31
2023-01-15T12:13:24.969Z,99949.94
2023-01-15T12:16:51.219Z,99933.25
2023-01-15T12:20:23.639Z,99929.44
2023-01-15T12:23:56.267Z,99930.09
2023-01-15T12:27:54.315Z,99912.31
2023-01-15T12:31:20.910Z,99901.09
2023-01-15T12:34:48.501Z,99893.63
2023-01-15T12:38:19.101Z,99894.09
2023-01-15T12:42:02.945Z,99909.31
2023-01-15T12:45:29.623Z,99909.31
2023-01-15T12:48:59.925Z,99911.63
2023-01-15T12:52:26.987Z,99912.22
2023-01-15T12:55:56.797Z,99910.50
2023-01-15T12:59:23.850Z,99908.75
2023-01-15T13:03:02.303Z,99908.75
2023-01-15T13:06:29.239Z,99904.13
2023-01-15T13:09:58.735Z,99909.50
2023-01-15T13:13:26.204Z,99897.09
2023-01-15T13:16:54.181Z,99904.34
2023-01-15T13:20:30.756Z,99889.50
2023-01-15T13:24:14.601Z,99886.63
2023-01-15T13:27:48.722Z,99873.34
2023-01-15T13:31:25.834Z,99872.37
2023-01-15T13:34:55.832Z,99875.34
2023-01-15T13:38:27.202Z,99869.13
2023-01-15T13:42:12.788Z,99874.94
2023-01-15T13:45:39.306Z,99873.72
2023-01-15T13:49:09.446Z,99868.81
2023-01-15T13:52:38.551Z,99858.22
2023-01-15T13:56:06.489Z,99854.06
2023-01-15T13:59:39.009Z,99841.78
2023-01-15T14:03:04.562Z,99843.53
2023-01-15T14:06:49.092Z,99851.97
2023-01-15T14:10:27.517Z,99856.28
2023-01-15T14:14:06.559Z,99850.72
2023-01-15T14:18:14.154Z,99836.84
2023-01-15T14:21:49.809Z,99840.97
2023-01-15T14:25:38.470Z,99838.28
2023-01-15T14:29:23.237Z,99839.25
2023-01-15T14:33:00.948Z,99837.31
2023-01-15T14:36:28.317Z,99828.13
2023-01-15T14:39:56.993Z,99829.94
2023-01-15T14:43:26.507Z,99828.22
2023-01-15T14:46:51.492Z,99829.47
2023-01-15T14:50:34.573Z,99821.97
2023-01-15T14:54:01.493Z,99821.22
2023-01-15T14:57:28.964Z,99817.00
2023-01-15T15:00:56.032Z,99813.75
2023-01-15T15:04:25.117Z,99813.06
2023-01-15T15:07:53.945Z,99811.81
2023-01-15T15:11:40.419Z,99807.53
2023-01-15T15:15:09.939Z,99805.00
2023-01-15T15:18:39.756Z,99804.53
2023-01-15T15:22:07.363Z,99806.16
2023-01-15T15:25:33.975Z,99799.47
2023-01-15T15:29:02.310Z,99803.78
2023-01-15T15:32:30.124Z,99799.28
2023-01-15T15:35:56.586Z,99782.72
2023-01-15T15:39:23.415Z,99787.56
2023-01-15T15:43:09.529Z,99777.84
2023-01-15T15:46:53.356Z,99771.69
2023-01-15T15:50:29.530Z,99765.78
2023-01-15T15:54:13.488Z,99763.28
2023-01-15T15:57:39.823Z,99758.78
2023-01-15T16:01:06.697Z,99761.72
2023-01-15T16:04:32.843Z,99763.09
2023-01-15T16:07:59.143Z,99766.75
2023-01-15T16:11:26.258Z,99770.38
2023-01-15T16:14:52.118Z,99774.28
2023-01-15T16:18:21.598Z,99765.37
2023-01-15T16:21:47.065Z,99770.81
2023-01-15T16:25:26.357Z,99766.31
2023-01-15T16:28:55.386Z,99766.88
2023-01-15T16:32:25.817Z,99770.34
2023-01-15T16:35:52.372Z,99768.56
2023-01-15T16:39:24.025Z,99763.47
2023-01-15T16:42:53.205Z,99761.16
2023-01-15T16:46:21.464Z,99753.72
2023-01-15T16:49:48.319Z,99752.06
2023-01-15T16:53:33.315Z,99754.09
2023-01-15T16:57:02.142Z,99755.78
2023-01-15T17:00:34.233Z,99747.38
2023-01-15T17:04:02.219Z,99741.84
2023-01-15T17:07:33.331Z,99745.88
2023-01-15T17:11:01.922Z,99747.19
2023-01-15T17:14:30.820Z,99739.66
2023-01-15T17:18:04.326Z,99740.41
2023-01-15T17:21:30.866Z,99734.19
2023-01-15T17:25:03.381Z,99730.75
2023-01-15T17:28:31.119Z,99732.56
2023-01-15T17:31:57.060Z,99730.19
2023-01-15T17:35:29.426Z,99729.00
2023-01-15T17:38:56.290Z,99719.84
2023-01-15T17:42:26.403Z,99717.34
2023-01-15T17:45:52.433Z,99716.66
2023-01-15T17:49:19.016Z,99722.53
2023-01-15T17:52:46.868Z,99736.69
2023-01-15T17:56:31.414Z,99731.81
2023-01-15T18:00:29.744Z,99744.19
2023-01-15T18:04:14.881Z,99745.97
2023-01-15T18:07:42.653Z,99749.84
2023-01-15T18:11:11.862Z,99756.38
2023-01-15T18:14:39.225Z,99749.47
2023-01-15T18:18:08.127Z,99756.47
2023-01-15T18:21:34.393Z,99752.41
2023-01-15T18:25:01.336Z,99733.94
2023-01-15T18:28:34.002Z,99736.81
2023-01-15T18:32:03.202Z,99739.75
2023-01-15T18:35:30.764Z,99749.34
2023-01-15T18:39:03.481Z,99747.38
2023-01-15T18:42:46.307Z,99742.09
2023-01-15T18:46:29.769Z,99746.53
2023-01-15T18:49:57.684Z,99749.81
2023-01-15T18:53:25.560Z,99743.03
2023-01-15T18:56:51.691Z,99748.38
2023-01-15T19:00:19.257Z,99747.25
2023-01-15T19:03:49.194Z,99739.47
2023-01-15T19:07:17.567Z,99747.97
2023-01-15T19:10:43.828Z,99741.59
2023-01-15T19:14:28.372Z,99746.06
2023-01-15T19:18:16.617Z,99740.53
2023-01-15T19:21:46.436Z,99742.94
2023-01-15T19:25:14.631Z,99741.28
2023-01-15T19:28:41.789Z,99743.88
2023-01-15T19:32:13.229Z,99746.19
2023-01-15T19:35:41.728Z,99734.37
2023-01-15T19:39:11.684Z,99743.63
2023-01-15T19:42:55.707Z,99750.81
2023-01-15T19:46:39.396Z,99746.47
2023-01-15T19:50:22.676Z,99745.53
2023-01-15T19:53:52.702Z,99744.25
2023-01-15T19:57:22.618Z,99745.03
2023-01-15T20:00:50.709Z,99738.47
2023-01-15T20:04:17.440Z,99736.16
2023-01-15T20:07:43.881Z,99738.00
2023-01-15T20:11:13.123Z,99731.44
2023-01-15T20:14:40.068Z,99739.22
2023-01-15T20:18:07.195Z,99718.63
2023-01-15T20:21:38.648Z,99729.63
2023-01-15T20:25:05.956Z,99726.19
2023-01-15T20:28:33.277Z,99728.19
2023-01-15T20:32:04.423Z,99730.75
2023-01-15T20:35:32.419Z,99741.25
2023-01-15T20:39:01.109Z,99746.28
2023-01-15T20:42:48.442Z,99738.72
2023-01-15T20:46:16.812Z,99749.81
2023-01-15T20:49:42.741Z,99748.19
2023-01-15T20:53:12.256Z,99751.13
2023-01-15T20:56:38.247Z,99745.16
2023-01-15T21:00:11.085Z,99709.72
2023-01-15T21:03:37.614Z,99729.47
2023-01-15T21:07:07.233Z,99725.00
2023-01-15T21:10:33.721Z,99726.91
2023-01-15T21:13:59.907Z,99728.63
2023-01-15T21:17:25.525Z,99731.84
2023-01-15T21:20:51.657Z,99743.56
2023-01-15T21:24:19.846Z,99736.09
2023-01-15T21:27:46.279Z,99724.78
2023-01-15T21:31:11.416Z,99719.56
2023-01-15T21:34:38.043Z,99721.91
2023-01-15T21:38:03.648Z,99721.66
2023-01-15T21:41:45.962Z,99723.62
2023-01-15T21:45:12.522Z,99717.50
2023-01-15T21:48:38.643Z,99710.22
2023-01-15T21:52:03.539Z,99712.25
2023-01-15T21:55:29.477Z,99717.09
2023-01-15T21:58:56.320Z,99719.72
2023-01-15T22:02:24.018Z,99718.81
2023-01-15T22:05:52.170Z,99721.47
2023-01-15T22:09:17.275Z,99711.34
2023-01-15T22:12:43.645Z,99695.75
2023-01-15T22:16:10.306Z,99685.84
2023-01-15T22:19:38.073Z,99677.62
2023-01-15T22:23:03.959Z,99686.41
2023-01-15T22:26:31.220Z,99687.03
2023-01-15T22:29:56.746Z,99691.62
2023-01-15T22:33:24.405Z,99684.53
2023-01-15T22:36:49.249Z,99682.25
2023-01-15T22:40:15.966Z,99672.59
2023-01-15T22:43:40.861Z,99688.37
2023-01-15T22:47:07.303Z,99694.78
2023-01-15T22:50:33.757Z,99688.69
2023-01-15T22:54:01.716Z,99687.94
2023-01-15T22:57:26.730Z,99681.56
2023-01-15T23:00:56.536Z,99669.75
2023-01-15T23:04:22.277Z,99664.59
2023-01-15T23:07:49.728Z,99673.19
2023-01-15T23:11:15.902Z,99675.94
2023-01-15T23:14:41.832Z,99684.56
2023-01-15T23:18:07.111Z,99708.94
2023-01-15T23:21:36.931Z,99699.88
2023-01-15T23:25:03.873Z,99699.53
2023-01-15T23:28:32.317Z,99712.75
2023-01-15T23:31:56.877Z,99706.91
2023-01-15T23:35:22.481Z,99697.09
2023-01-15T23:38:48.829Z,99690.34
2023-01-15T23:42:33.175Z,99679.50
2023-01-15T23:46:14.587Z,99668.38
2023-01-15T23:49:40.899Z,99654.25
2023-01-15T23:53:06.618Z,99651.53
2023-01-15T23:56:32.348Z,99654.94
2023-01-15T23:59:58.886Z,99653.84
